createdAt,value
2022-10-07T00:02:57.840Z,13.25
2022-10-07T00:08:07.177Z,13.75
2022-10-07T00:13:12.210Z,12.73
2022-10-07T00:18:14.888Z,14.48
2022-10-07T00:23:17.326Z,12.20
2022-10-07T00:28:19.645Z,12.88
2022-10-07T00:33:22.053Z,11.75
2022-10-07T00:38:28.403Z,12.05
2022-10-07T00:43:32.549Z,11.73
2022-10-07T00:48:38.907Z,11.07
2022-10-07T00:53:41.891Z,10.93
2022-10-07T00:58:46.004Z,10.20
2022-10-07T01:03:48.722Z,10.27
2022-10-07T01:08:52.988Z,9.90
2022-10-07T01:14:24.109Z,9.77
2022-10-07T01:19:41.275Z,13.13
2022-10-07T01:25:12.630Z,11.45
2022-10-07T01:30:15.018Z,11.18
2022-10-07T01:35:19.428Z,12.10
2022-10-07T01:40:27.486Z,10.57
2022-10-07T01:45:39.282Z,10.55
2022-10-07T01:50:43.288Z,10.75
2022-10-07T01:56:12.950Z,11.02
2022-10-07T02:01:23.034Z,11.27
2022-10-07T02:06:35.985Z,9.18
2022-10-07T02:11:41.323Z,9.23
2022-10-07T02:16:47.938Z,9.20
2022-10-07T02:21:52.664Z,8.88
2022-10-07T02:32:14.912Z,9.60
2022-10-07T02:49:32.568Z,10.68
2022-10-07T02:55:01.843Z,10.45
2022-10-07T03:00:11.367Z,9.95
2022-10-07T03:05:26.039Z,10.10
2022-10-07T03:10:32.117Z,10.35
2022-10-07T03:15:41.853Z,10.65
2022-10-07T03:20:47.055Z,9.75
2022-10-07T03:25:53.618Z,11.02
2022-10-07T03:31:07.910Z,10.00
2022-10-07T03:36:12.672Z,11.48
2022-10-07T03:41:19.254Z,11.13
2022-10-07T03:46:25.000Z,11.35
2022-10-07T03:51:28.578Z,10.30
2022-10-07T03:56:31.199Z,10.00
2022-10-07T04:01:34.107Z,10.30
2022-10-07T04:06:37.982Z,10.38
2022-10-07T04:11:45.789Z,10.57
2022-10-07T04:16:48.186Z,11.25
2022-10-07T04:21:52.993Z,10.68
2022-10-07T04:26:55.759Z,10.50
2022-10-07T04:31:58.986Z,11.07
2022-10-07T04:37:01.785Z,10.57
2022-10-07T04:42:06.744Z,10.93
2022-10-07T04:47:10.480Z,10.73
2022-10-07T04:52:15.211Z,11.93
2022-10-07T04:57:19.203Z,12.60
2022-10-07T05:02:22.382Z,13.15
2022-10-07T05:07:26.049Z,9.77
2022-10-07T05:12:29.180Z,13.00
2022-10-07T05:17:33.308Z,12.52
2022-10-07T05:22:36.369Z,12.35
2022-10-07T05:27:39.238Z,11.90
2022-10-07T05:32:41.906Z,11.13
2022-10-07T05:37:48.757Z,13.93
2022-10-07T05:42:54.598Z,13.85
2022-10-07T05:47:58.495Z,13.40
2022-10-07T05:53:00.876Z,11.82
2022-10-07T05:58:03.438Z,11.88
2022-10-07T06:03:05.781Z,12.77
2022-10-07T06:13:15.009Z,12.20
2022-10-07T06:18:17.902Z,11.35
2022-10-07T06:23:20.345Z,10.88
2022-10-07T06:28:23.357Z,11.05
2022-10-07T06:33:26.157Z,10.57
2022-10-07T06:38:28.521Z,9.40
2022-10-07T06:43:32.915Z,9.77
2022-10-07T06:48:46.108Z,10.40
2022-10-07T06:53:53.674Z,9.40
2022-10-07T06:59:00.000Z,10.52
2022-10-07T07:04:10.716Z,10.73
2022-10-07T07:09:13.758Z,10.77
2022-10-07T07:14:19.280Z,9.35
2022-10-07T07:19:28.283Z,9.25
2022-10-07T07:24:35.050Z,9.50
2022-10-07T07:29:40.867Z,8.10
2022-10-07T07:39:56.677Z,6.93
2022-10-07T07:45:00.127Z,6.18
2022-10-07T07:50:05.168Z,8.10
2022-10-07T07:55:09.075Z,7.68
2022-10-07T08:00:15.041Z,6.93
2022-10-07T08:05:24.079Z,7.43
2022-10-07T08:10:31.555Z,6.57
2022-10-07T08:15:35.052Z,6.45
2022-10-07T08:20:37.820Z,6.07
2022-10-07T08:25:42.102Z,5.47
2022-10-07T08:36:56.992Z,6.00
2022-10-07T08:42:15.420Z,4.85
2022-10-07T08:47:34.791Z,4.75
2022-10-07T08:52:46.380Z,7.05
2022-10-07T08:58:46.209Z,4.38
2022-10-07T09:04:39.852Z,3.90
2022-10-07T09:10:36.516Z,4.20
2022-10-07T09:27:20.451Z,2.22
2022-10-07T09:32:22.964Z,2.65
2022-10-07T09:37:27.861Z,2.67
2022-10-07T09:42:42.887Z,3.63
2022-10-07T09:47:51.413Z,2.60
2022-10-07T09:52:57.025Z,3.65
2022-10-07T09:58:02.400Z,2.58
2022-10-07T10:03:06.316Z,2.75
2022-10-07T10:08:18.915Z,4.13
2022-10-07T10:18:40.144Z,6.03
2022-10-07T10:23:46.618Z,3.90
2022-10-07T10:29:25.532Z,6.50
2022-10-07T10:34:48.825Z,4.47
2022-10-07T10:40:09.938Z,3.83
2022-10-07T10:45:30.494Z,3.60
2022-10-07T10:50:57.959Z,2.90
2022-10-07T10:56:38.656Z,4.65
2022-10-07T11:02:04.526Z,3.45
2022-10-07T11:07:22.669Z,2.92
2022-10-07T11:12:28.914Z,2.50
2022-10-07T11:17:42.659Z,2.58
2022-10-07T11:22:51.735Z,1.75
2022-10-07T11:28:01.141Z,4.05
2022-10-07T11:33:36.085Z,4.10
2022-10-07T11:38:42.457Z,3.20
2022-10-07T11:43:57.939Z,4.15
2022-10-07T11:49:08.331Z,2.30
2022-10-07T11:54:14.786Z,8.55
2022-10-07T11:59:34.507Z,11.93
2022-10-07T12:04:48.146Z,3.10
2022-10-07T12:10:23.866Z,3.45
2022-10-07T12:15:31.053Z,5.07
2022-10-07T12:21:10.841Z,3.00
2022-10-07T12:27:11.177Z,2.70
2022-10-07T12:32:51.874Z,1.80
2022-10-07T12:38:10.878Z,3.10
2022-10-07T12:44:18.363Z,2.03
2022-10-07T12:49:39.671Z,3.22
2022-10-07T12:54:58.227Z,1.88
2022-10-07T13:00:17.477Z,3.80
2022-10-07T13:06:03.828Z,4.40
2022-10-07T13:11:55.168Z,3.90
2022-10-07T13:17:28.137Z,4.72
2022-10-07T13:22:35.685Z,3.80
2022-10-07T13:27:38.769Z,2.38
2022-10-07T13:32:47.028Z,5.47
2022-10-07T13:37:51.615Z,2.90
2022-10-07T13:42:54.920Z,2.55
2022-10-07T13:47:57.896Z,2.47
2022-10-07T13:53:01.365Z,3.55
2022-10-07T13:58:06.707Z,5.80
2022-10-07T14:03:17.011Z,2.90
2022-10-07T14:08:23.647Z,2.90
2022-10-07T14:13:36.769Z,10.43
2022-10-07T14:18:42.885Z,8.85
2022-10-07T14:23:47.916Z,4.30
2022-10-07T14:28:50.312Z,1.87
2022-10-07T14:34:35.550Z,1.85
2022-10-07T14:39:42.675Z,1.70
2022-10-07T14:44:45.388Z,1.80
2022-10-07T14:49:52.899Z,2.42
2022-10-07T14:54:57.580Z,2.90
2022-10-07T15:00:00.295Z,2.30
2022-10-07T15:05:03.014Z,3.08
2022-10-07T15:10:12.088Z,3.00
2022-10-07T15:15:38.292Z,2.30
2022-10-07T15:20:40.997Z,2.50
2022-10-07T15:25:43.309Z,2.58
2022-10-07T15:30:45.743Z,2.05
2022-10-07T15:35:48.123Z,2.10
2022-10-07T15:40:55.800Z,2.30
2022-10-07T15:45:59.715Z,1.80
2022-10-07T15:51:04.912Z,1.83
2022-10-07T15:56:09.544Z,1.70
2022-10-07T16:01:12.582Z,1.73
2022-10-07T16:06:23.079Z,1.77
2022-10-07T16:11:27.427Z,2.15
2022-10-07T16:16:32.995Z,2.17
2022-10-07T16:21:37.877Z,2.38
2022-10-07T16:26:41.947Z,2.35
2022-10-07T16:31:46.301Z,2.10
2022-10-07T16:36:50.061Z,1.90
2022-10-07T16:41:52.657Z,2.28
2022-10-07T16:46:59.277Z,2.22
2022-10-07T16:52:01.673Z,5.13
2022-10-07T16:57:04.282Z,5.30
2022-10-07T17:02:06.858Z,5.20
2022-10-07T17:07:09.397Z,5.87
2022-10-07T17:12:12.007Z,5.97
2022-10-07T17:17:14.345Z,5.82
2022-10-07T17:22:17.009Z,6.95
2022-10-07T17:27:19.511Z,7.97
2022-10-07T17:32:21.985Z,8.30
2022-10-07T17:37:25.034Z,9.32
2022-10-07T17:42:27.286Z,8.38
2022-10-07T17:47:29.891Z,7.40
2022-10-07T17:52:32.665Z,8.73
2022-10-07T17:57:37.868Z,8.20
2022-10-07T18:07:44.645Z,10.05
2022-10-07T18:13:05.840Z,15.88
2022-10-07T18:18:08.154Z,11.18
2022-10-07T18:23:10.333Z,8.52
2022-10-07T18:28:13.502Z,8.73
2022-10-07T18:33:16.349Z,14.05
2022-10-07T18:38:18.611Z,31.90
2022-10-07T18:43:20.908Z,44.35
2022-10-07T18:48:23.333Z,40.70
2022-10-07T18:59:44.111Z,54.38
2022-10-07T19:04:47.809Z,56.50
2022-10-07T19:10:12.973Z,57.63
2022-10-07T19:15:15.454Z,70.97
2022-10-07T19:20:18.519Z,78.43
2022-10-07T19:25:46.122Z,59.33
2022-10-07T19:38:42.815Z,53.10
2022-10-07T19:43:46.680Z,49.75
2022-10-07T19:48:49.644Z,56.33
2022-10-07T19:54:48.843Z,54.45
2022-10-07T20:00:11.827Z,64.97
2022-10-07T20:05:14.956Z,68.07
2022-10-07T20:10:19.917Z,76.33
2022-10-07T20:15:23.313Z,88.53
2022-10-07T20:20:27.564Z,86.97
2022-10-07T20:25:33.825Z,77.35
2022-10-07T20:30:37.662Z,58.05
2022-10-07T20:35:41.128Z,53.88
2022-10-07T20:41:20.739Z,54.80
2022-10-07T20:46:23.670Z,50.92
2022-10-07T20:51:50.269Z,46.35
2022-10-07T20:57:26.522Z,39.92
2022-10-07T21:03:32.876Z,60.90
2022-10-07T21:08:39.379Z,81.30
2022-10-07T21:13:41.844Z,73.03
2022-10-07T21:24:40.182Z,58.30
2022-10-07T21:30:36.749Z,45.67
2022-10-07T21:35:42.865Z,35.28
2022-10-07T21:40:45.183Z,26.35
2022-10-07T21:45:47.818Z,24.73
2022-10-07T21:50:56.793Z,23.87
2022-10-07T21:56:02.121Z,21.52
2022-10-07T22:01:05.873Z,20.48
2022-10-07T22:06:10.535Z,20.67
2022-10-07T22:11:19.908Z,19.15
2022-10-07T22:16:23.078Z,20.58
2022-10-07T22:21:30.080Z,18.13
2022-10-07T22:26:40.751Z,17.05
2022-10-07T22:31:43.459Z,16.70
2022-10-07T22:36:45.908Z,16.53
2022-10-07T22:41:48.770Z,16.98
2022-10-07T22:47:39.812Z,16.45
2022-10-07T22:58:42.034Z,15.52
2022-10-07T23:03:44.732Z,14.00
2022-10-07T23:08:48.268Z,13.30
2022-10-07T23:13:54.717Z,12.85
2022-10-07T23:19:13.642Z,12.80
2022-10-07T23:24:58.690Z,12.50
2022-10-07T23:30:00.883Z,13.68
2022-10-07T23:40:21.086Z,14.27
2022-10-07T23:45:32.609Z,15.38
2022-10-07T23:50:58.711Z,14.52
2022-10-07T23:56:03.089Z,16.70
